Flugplatz Lübeck Blankensee

Bericht für EDHL

vom 22.11. um 15:20 UTC

Wind 8 kt aus 210°

Sichtweite 8000 m

gering bewölkt in 1300 ft

aufgebrochene Bewölkung in 2200 ft

Temperatur 10.0°C

Taupunkt 10.0°C

Luftfeuchtigkeit 100%

Luftdruck 1004 hPa

EDHL 221520Z 21008KT 8000 FEW013 BKN022 10/10 Q1004

Prognose für EDHL

vom 22.11. um 14:00 UTC

Zwischen 15:00 UTC und 21:00 UTC

Wind 10 kt aus 200°

Sichtweite 2500 m

Sprühregen

aufgebrochene Bewölkung in 500 ft


Zwischen 15:00 und 17:00 UTC übergehend zu

Wind 10 kt aus 200°

Sichtweite 8000 m

keine signifikanten Wettererscheinungen

aufgebrochene Bewölkung in 1200 ft


Zwischen 17:00 und 19:00 UTC übergehend zu

Wind 10 kt aus 200°

Sichtweite 8000 m

keine signifikanten Wettererscheinungen

aufgelockert bewölkt in 3000 ft

TAF EDHL 221400Z 2215/2221 20010KT 2500 DZ BKN005 BECMG 2215/2217 8000 NSW BKN012 BECMG 2217/2219 SCT030
Impressum